createdAt,value
2017-08-19T00:02:14.217Z,1.30
2017-08-19T00:04:40.875Z,1.92
2017-08-19T00:07:07.610Z,1.10
2017-08-19T00:09:34.249Z,1.12
2017-08-19T00:12:00.894Z,1.12
2017-08-19T00:14:27.522Z,1.12
2017-08-19T00:16:54.128Z,1.42
2017-08-19T00:19:20.802Z,1.60
2017-08-19T00:21:47.432Z,1.48
2017-08-19T00:24:14.078Z,1.90
2017-08-19T00:26:40.683Z,1.77
2017-08-19T00:29:07.314Z,1.90
2017-08-19T00:31:33.913Z,1.90
2017-08-19T00:34:00.518Z,1.75
2017-08-19T00:36:27.163Z,1.50
2017-08-19T00:38:53.762Z,1.20
2017-08-19T00:41:20.371Z,1.30
2017-08-19T00:43:47.095Z,1.55
2017-08-19T00:46:13.693Z,1.62
2017-08-19T00:48:40.293Z,1.40
2017-08-19T00:51:06.939Z,1.50
2017-08-19T00:53:33.656Z,1.52
2017-08-19T00:56:00.253Z,1.75
2017-08-19T00:58:26.898Z,1.42
2017-08-19T01:00:53.498Z,1.65
2017-08-19T01:03:20.102Z,1.55
2017-08-19T01:05:46.843Z,1.92
2017-08-19T01:08:13.450Z,1.83
2017-08-19T01:10:40.123Z,1.50
2017-08-19T01:13:06.753Z,1.80
2017-08-19T01:15:33.401Z,1.30
2017-08-19T01:18:00.039Z,2.10
2017-08-19T01:20:26.786Z,1.40
2017-08-19T01:22:53.387Z,1.90
2017-08-19T01:25:25.923Z,2.00
2017-08-19T01:27:52.521Z,1.70
2017-08-19T01:30:19.122Z,1.90
2017-08-19T01:32:45.806Z,1.77
2017-08-19T01:35:12.410Z,1.67
2017-08-19T01:37:39.086Z,2.20
2017-08-19T01:40:05.732Z,1.67
2017-08-19T01:42:32.366Z,2.65
2017-08-19T01:44:59.007Z,2.08
2017-08-19T01:47:25.646Z,3.05
2017-08-19T01:49:52.246Z,2.80
2017-08-19T01:52:18.846Z,2.05
2017-08-19T01:54:45.557Z,2.37
2017-08-19T01:57:12.199Z,2.80
2017-08-19T01:59:38.797Z,2.47
2017-08-19T02:02:05.430Z,3.10
2017-08-19T02:04:32.104Z,3.08
2017-08-19T02:06:58.714Z,3.17
2017-08-19T02:09:25.351Z,2.80
2017-08-19T02:11:52.043Z,2.97
2017-08-19T02:14:18.675Z,3.03
2017-08-19T02:16:45.413Z,2.90
2017-08-19T02:19:12.063Z,2.60
2017-08-19T02:21:38.667Z,2.70
2017-08-19T02:24:05.338Z,3.28
2017-08-19T02:26:31.943Z,2.90
2017-08-19T02:28:58.635Z,4.05
2017-08-19T02:31:25.245Z,3.85
2017-08-19T02:33:51.852Z,3.87
2017-08-19T02:36:18.531Z,3.42
2017-08-19T02:38:45.174Z,3.90
2017-08-19T02:41:11.805Z,4.05
2017-08-19T02:43:38.403Z,3.67
2017-08-19T02:46:05.087Z,4.15
2017-08-19T02:48:31.726Z,3.55
2017-08-19T02:50:58.361Z,4.57
2017-08-19T02:53:24.987Z,4.78
2017-08-19T02:55:51.594Z,4.37
2017-08-19T02:58:18.193Z,4.45
2017-08-19T03:00:44.914Z,4.53
2017-08-19T03:03:11.520Z,4.97
2017-08-19T03:05:38.194Z,4.70
2017-08-19T03:08:05.242Z,5.20
2017-08-19T03:10:31.847Z,4.50
2017-08-19T03:12:58.519Z,4.35
2017-08-19T03:15:25.157Z,4.62
2017-08-19T03:17:51.797Z,4.25
2017-08-19T03:20:18.398Z,4.28
2017-08-19T03:22:45.026Z,4.72
2017-08-19T03:25:11.630Z,4.47
2017-08-19T03:27:38.226Z,4.70
2017-08-19T03:30:04.871Z,5.45
2017-08-19T03:32:31.531Z,5.20
2017-08-19T03:34:58.128Z,5.32
2017-08-19T03:37:24.754Z,5.30
2017-08-19T03:39:51.353Z,5.87
2017-08-19T03:42:17.959Z,4.90
2017-08-19T03:44:44.627Z,5.40
2017-08-19T03:47:11.258Z,5.60
2017-08-19T03:49:37.858Z,5.55
2017-08-19T03:52:04.537Z,5.53
2017-08-19T03:54:31.138Z,6.97
2017-08-19T03:56:57.813Z,5.35
2017-08-19T03:59:24.463Z,5.60
2017-08-19T04:01:51.065Z,5.45
2017-08-19T04:04:17.729Z,6.60
2017-08-19T04:06:44.355Z,5.55
2017-08-19T04:09:10.953Z,5.30
2017-08-19T04:11:37.559Z,5.75
2017-08-19T04:14:04.498Z,6.30
2017-08-19T04:16:31.130Z,5.97
2017-08-19T04:18:57.769Z,4.97
2017-08-19T04:21:24.399Z,5.53
2017-08-19T04:23:50.998Z,4.87
2017-08-19T04:26:17.602Z,4.47
2017-08-19T04:28:44.231Z,5.53
2017-08-19T04:31:10.832Z,5.75
2017-08-19T04:33:37.502Z,5.90
2017-08-19T04:36:04.154Z,5.55
2017-08-19T04:38:30.781Z,5.20
2017-08-19T04:40:57.384Z,5.65
2017-08-19T04:43:24.058Z,5.18
2017-08-19T04:45:50.663Z,5.10
2017-08-19T04:48:17.334Z,5.57
2017-08-19T04:50:44.002Z,5.82
2017-08-19T04:53:10.721Z,5.35
2017-08-19T04:55:37.318Z,5.32
2017-08-19T04:58:03.942Z,4.85
2017-08-19T05:00:30.551Z,4.87
2017-08-19T05:02:57.159Z,4.65
2017-08-19T05:05:23.782Z,4.30
2017-08-19T05:07:50.455Z,5.20
2017-08-19T05:10:17.062Z,5.22
2017-08-19T05:12:43.730Z,4.70
2017-08-19T05:15:10.333Z,4.10
2017-08-19T05:17:37.007Z,4.72
2017-08-19T05:20:03.642Z,4.65
2017-08-19T05:22:30.281Z,4.30
2017-08-19T05:24:56.884Z,3.90
2017-08-19T05:27:23.514Z,5.20
2017-08-19T05:29:50.118Z,4.35
2017-08-19T05:32:16.718Z,3.60
2017-08-19T05:34:43.352Z,4.05
2017-08-19T05:37:10.014Z,3.12
2017-08-19T05:39:36.654Z,3.33
2017-08-19T05:42:04.090Z,4.75
2017-08-19T05:44:30.699Z,3.85
2017-08-19T05:46:57.309Z,3.35
2017-08-19T05:49:24.031Z,3.40
2017-08-19T05:51:50.669Z,3.25
2017-08-19T05:54:17.315Z,3.45
2017-08-19T05:56:43.957Z,3.35
2017-08-19T05:59:10.563Z,3.03
2017-08-19T06:01:37.165Z,3.65
2017-08-19T06:04:03.795Z,3.35
2017-08-19T06:06:30.402Z,3.10
2017-08-19T06:08:57.001Z,2.70
2017-08-19T06:11:23.627Z,2.30
2017-08-19T06:13:50.314Z,2.70
2017-08-19T06:16:16.954Z,2.50
2017-08-19T06:18:43.694Z,3.10
2017-08-19T06:21:10.294Z,2.97
2017-08-19T06:23:36.980Z,3.42
2017-08-19T06:26:03.602Z,3.40
2017-08-19T06:28:30.211Z,2.80
2017-08-19T06:30:56.890Z,2.83
2017-08-19T06:33:23.517Z,2.72
2017-08-19T06:35:50.118Z,3.10
2017-08-19T06:38:16.805Z,2.42
2017-08-19T06:40:43.430Z,2.80
2017-08-19T06:43:10.086Z,3.12
2017-08-19T06:45:36.691Z,2.50
2017-08-19T06:48:03.333Z,2.33
2017-08-19T06:50:30.002Z,2.50
2017-08-19T06:52:56.602Z,2.60
2017-08-19T06:55:23.238Z,2.62
2017-08-19T06:57:49.923Z,2.40
2017-08-19T07:00:16.560Z,2.20
2017-08-19T07:02:43.198Z,2.35
2017-08-19T07:05:09.797Z,2.20
2017-08-19T07:07:36.402Z,2.42
2017-08-19T07:10:03.033Z,2.20
2017-08-19T07:12:29.654Z,2.00
2017-08-19T07:14:56.297Z,2.20
2017-08-19T07:17:22.931Z,2.40
2017-08-19T07:19:49.538Z,2.95
2017-08-19T07:22:16.142Z,2.15
2017-08-19T07:24:42.783Z,2.70
2017-08-19T07:27:09.381Z,2.25
2017-08-19T07:29:36.022Z,2.05
2017-08-19T07:32:02.647Z,2.35
2017-08-19T07:34:29.303Z,2.22
2017-08-19T07:36:55.938Z,3.35
2017-08-19T07:39:22.563Z,2.55
2017-08-19T07:41:49.218Z,2.47
2017-08-19T07:44:15.857Z,2.45
2017-08-19T07:46:42.601Z,3.00
2017-08-19T07:49:09.207Z,2.20
2017-08-19T07:51:35.806Z,2.72
2017-08-19T07:54:02.515Z,2.17
2017-08-19T07:56:29.158Z,2.12
2017-08-19T07:58:55.757Z,2.60
2017-08-19T08:01:22.435Z,2.35
2017-08-19T08:03:49.036Z,1.90
2017-08-19T08:06:15.638Z,1.87
2017-08-19T08:08:42.262Z,1.50
2017-08-19T08:11:08.867Z,2.53
2017-08-19T08:13:35.475Z,2.25
2017-08-19T08:16:02.111Z,1.90
2017-08-19T08:18:28.802Z,1.37
2017-08-19T08:20:55.410Z,1.95
2017-08-19T08:23:22.038Z,2.40
2017-08-19T08:25:48.643Z,2.05
2017-08-19T08:28:15.242Z,2.12
2017-08-19T08:30:41.994Z,2.40
2017-08-19T08:33:08.594Z,2.40
2017-08-19T08:35:35.198Z,1.80
2017-08-19T08:38:01.818Z,2.25
2017-08-19T08:40:28.419Z,2.05
2017-08-19T08:42:55.027Z,2.60
2017-08-19T08:45:21.731Z,1.85
2017-08-19T08:47:48.367Z,1.48
2017-08-19T08:50:15.017Z,2.00
2017-08-19T08:52:41.756Z,1.90
2017-08-19T08:55:08.390Z,2.03
2017-08-19T08:57:34.986Z,1.75
2017-08-19T09:00:01.662Z,1.75
2017-08-19T09:02:28.275Z,1.90
2017-08-19T09:04:54.875Z,2.45
2017-08-19T09:07:21.589Z,1.40
2017-08-19T09:09:48.194Z,1.95
2017-08-19T09:12:14.862Z,1.70
2017-08-19T09:14:41.487Z,2.00
2017-08-19T09:17:08.146Z,1.60
2017-08-19T09:19:34.882Z,1.30
2017-08-19T09:22:01.618Z,1.37
2017-08-19T09:24:28.221Z,1.55
2017-08-19T09:26:54.827Z,1.80
2017-08-19T09:29:21.450Z,2.12
2017-08-19T09:31:48.053Z,1.60
2017-08-19T09:34:14.713Z,2.10
2017-08-19T09:36:41.446Z,1.80
2017-08-19T09:39:08.094Z,2.17
2017-08-19T09:41:34.711Z,1.65
2017-08-19T09:44:01.375Z,1.70
2017-08-19T09:46:28.011Z,1.50
2017-08-19T09:48:54.610Z,1.90
2017-08-19T09:51:21.295Z,2.47
2017-08-19T09:53:47.894Z,1.80
2017-08-19T09:56:14.500Z,1.92
2017-08-19T09:58:41.119Z,1.90
2017-08-19T10:01:07.722Z,2.42
2017-08-19T10:03:34.326Z,1.98
2017-08-19T10:06:00.978Z,1.23
2017-08-19T10:08:33.594Z,1.75
2017-08-19T10:11:06.288Z,1.70
2017-08-19T10:13:32.914Z,1.70
2017-08-19T10:15:59.559Z,1.60
2017-08-19T10:18:26.195Z,1.60
2017-08-19T10:20:52.834Z,1.62
2017-08-19T10:23:19.471Z,1.35
2017-08-19T10:25:46.178Z,1.70
2017-08-19T10:28:12.783Z,1.83
2017-08-19T10:30:39.494Z,1.37
2017-08-19T10:33:06.130Z,1.58
2017-08-19T10:35:32.730Z,1.45
2017-08-19T10:37:59.335Z,1.70
2017-08-19T10:40:26.006Z,1.90
2017-08-19T10:42:52.607Z,2.05
2017-08-19T10:45:19.231Z,1.95
2017-08-19T10:47:45.867Z,1.70
2017-08-19T10:50:12.506Z,1.45
2017-08-19T10:52:39.105Z,1.58
2017-08-19T10:55:05.741Z,1.80
2017-08-19T10:57:32.342Z,2.12
2017-08-19T10:59:59.062Z,1.30
2017-08-19T11:02:25.786Z,1.12
2017-08-19T11:04:52.386Z,1.80
2017-08-19T11:07:18.994Z,1.33
2017-08-19T11:09:45.724Z,1.50
2017-08-19T11:12:12.354Z,2.00
2017-08-19T11:14:38.995Z,1.40
2017-08-19T11:17:05.739Z,1.10
2017-08-19T11:19:32.374Z,1.95
2017-08-19T11:21:58.979Z,1.95
2017-08-19T11:24:25.630Z,2.03
2017-08-19T11:26:52.292Z,1.73
2017-08-19T11:29:18.931Z,1.60
2017-08-19T11:31:45.570Z,1.70
2017-08-19T11:34:12.211Z,1.52
2017-08-19T11:36:38.814Z,1.50
2017-08-19T11:39:05.442Z,1.90
2017-08-19T11:41:32.043Z,1.87
2017-08-19T11:43:58.662Z,1.37
2017-08-19T11:46:25.287Z,1.20
2017-08-19T11:48:51.942Z,1.85
2017-08-19T11:51:18.538Z,1.35
2017-08-19T11:53:45.218Z,1.70
2017-08-19T11:56:11.866Z,1.17
2017-08-19T11:58:38.470Z,1.90
2017-08-19T12:01:05.102Z,1.45
2017-08-19T12:03:31.782Z,3.37
2017-08-19T12:05:58.387Z,1.40
2017-08-19T12:08:25.050Z,1.52
2017-08-19T12:10:51.689Z,1.35
2017-08-19T12:13:18.326Z,1.65
2017-08-19T12:15:44.960Z,1.55
2017-08-19T12:18:11.558Z,1.33
2017-08-19T12:20:38.246Z,1.37
2017-08-19T12:23:04.874Z,1.50
2017-08-19T12:25:31.482Z,1.62
2017-08-19T12:27:58.082Z,1.23
2017-08-19T12:30:24.705Z,1.35
2017-08-19T12:32:51.310Z,1.23
2017-08-19T12:35:17.915Z,1.25
2017-08-19T12:37:44.613Z,1.20
2017-08-19T12:40:11.259Z,1.52
2017-08-19T12:42:37.858Z,1.55
2017-08-19T12:45:04.535Z,0.93
2017-08-19T12:47:31.178Z,1.12
2017-08-19T12:49:57.810Z,1.50
2017-08-19T12:52:24.439Z,2.00
2017-08-19T12:54:51.085Z,1.40
2017-08-19T12:57:17.726Z,1.95
2017-08-19T12:59:44.374Z,1.70
2017-08-19T13:02:10.974Z,1.37
2017-08-19T13:04:37.583Z,1.50
2017-08-19T13:07:04.210Z,1.50
2017-08-19T13:09:30.827Z,0.95
2017-08-19T13:11:57.438Z,2.25
2017-08-19T13:14:24.070Z,1.60
2017-08-19T13:16:50.738Z,1.45
2017-08-19T13:19:17.347Z,0.85
2017-08-19T13:21:43.989Z,1.48
2017-08-19T13:24:10.614Z,1.70
2017-08-19T13:26:37.299Z,1.30
2017-08-19T13:29:04.033Z,1.50
2017-08-19T13:31:30.679Z,1.80
2017-08-19T13:33:57.290Z,1.70
2017-08-19T13:36:23.917Z,1.23
2017-08-19T13:38:50.591Z,1.43
2017-08-19T13:41:17.190Z,0.90
2017-08-19T13:43:43.874Z,1.07
2017-08-19T13:46:10.506Z,1.17
2017-08-19T13:48:37.154Z,1.40
2017-08-19T13:51:03.775Z,0.90
2017-08-19T13:53:30.426Z,1.20
2017-08-19T13:55:57.022Z,1.27
2017-08-19T13:58:23.702Z,0.90
2017-08-19T14:00:50.301Z,0.90
2017-08-19T14:03:16.978Z,1.33
2017-08-19T14:05:43.734Z,1.00
2017-08-19T14:08:10.339Z,1.23
2017-08-19T14:10:37.002Z,1.30
2017-08-19T14:13:03.627Z,1.20
2017-08-19T14:15:30.282Z,1.00
2017-08-19T14:17:56.921Z,1.60
2017-08-19T14:20:23.659Z,1.73
2017-08-19T14:22:50.299Z,1.40
2017-08-19T14:25:16.903Z,1.13
2017-08-19T14:27:43.538Z,1.40
2017-08-19T14:30:10.215Z,1.57
2017-08-19T14:32:36.855Z,0.90
2017-08-19T14:35:03.478Z,1.20
2017-08-19T14:37:30.082Z,1.40
2017-08-19T14:39:56.687Z,1.10
2017-08-19T14:42:23.411Z,1.23
2017-08-19T14:44:50.019Z,0.98
2017-08-19T14:47:16.696Z,1.62
2017-08-19T14:49:43.333Z,1.15
2017-08-19T14:52:09.940Z,1.47
2017-08-19T14:54:36.542Z,1.03
2017-08-19T14:57:03.166Z,0.70
2017-08-19T14:59:29.787Z,1.20
2017-08-19T15:01:56.420Z,0.90
2017-08-19T15:04:23.054Z,1.43
2017-08-19T15:06:49.694Z,0.93
2017-08-19T15:09:16.298Z,0.90
2017-08-19T15:11:42.941Z,1.07
2017-08-19T15:14:09.618Z,0.93
2017-08-19T15:16:36.218Z,1.47
2017-08-19T15:19:02.842Z,0.90
2017-08-19T15:21:29.446Z,0.77
2017-08-19T15:23:56.051Z,1.57
2017-08-19T15:26:22.679Z,1.00
2017-08-19T15:28:49.279Z,0.90
2017-08-19T15:31:15.878Z,1.27
2017-08-19T15:33:42.517Z,0.67
2017-08-19T15:36:09.121Z,0.90
2017-08-19T15:38:35.721Z,0.70
2017-08-19T15:41:02.437Z,0.93
2017-08-19T15:43:29.077Z,0.63
2017-08-19T15:45:55.683Z,0.60
2017-08-19T15:48:22.316Z,0.70
2017-08-19T15:50:48.915Z,0.53
2017-08-19T15:53:15.515Z,0.70
2017-08-19T15:55:42.159Z,0.97
2017-08-19T15:58:08.758Z,0.80
2017-08-19T16:00:35.354Z,0.90
2017-08-19T16:03:02.091Z,0.97
2017-08-19T16:05:28.730Z,1.20
2017-08-19T16:07:55.326Z,1.40
2017-08-19T16:10:21.966Z,0.77
2017-08-19T16:12:48.570Z,0.80
2017-08-19T16:15:15.282Z,0.75
2017-08-19T16:17:41.918Z,0.80
2017-08-19T16:20:08.523Z,0.85
2017-08-19T16:22:35.123Z,1.33
2017-08-19T16:25:01.766Z,1.15
2017-08-19T16:27:28.481Z,1.20
2017-08-19T16:29:55.082Z,0.80
2017-08-19T16:32:21.714Z,0.80
2017-08-19T16:34:48.394Z,1.10
2017-08-19T16:37:15.002Z,1.60
2017-08-19T16:39:41.626Z,1.00
2017-08-19T16:42:08.236Z,1.02
2017-08-19T16:44:34.839Z,1.23
2017-08-19T16:47:01.477Z,1.10
2017-08-19T16:49:28.126Z,1.15
2017-08-19T16:51:54.765Z,1.40
2017-08-19T16:54:21.506Z,0.85
2017-08-19T16:56:48.141Z,1.20
2017-08-19T16:59:14.747Z,1.15
2017-08-19T17:01:41.423Z,0.93
2017-08-19T17:04:08.067Z,1.15
2017-08-19T17:06:34.671Z,0.95
2017-08-19T17:09:01.346Z,1.27
2017-08-19T17:11:27.978Z,1.20
2017-08-19T17:13:54.581Z,0.73
2017-08-19T17:16:21.231Z,1.15
2017-08-19T17:18:47.837Z,1.15
2017-08-19T17:21:14.476Z,0.70
2017-08-19T17:23:41.170Z,1.23
2017-08-19T17:26:07.779Z,1.00
2017-08-19T17:28:34.382Z,1.40
2017-08-19T17:31:01.090Z,1.17
2017-08-19T17:33:27.689Z,1.23
2017-08-19T17:35:54.290Z,1.20
2017-08-19T17:38:21.008Z,1.20
2017-08-19T17:40:47.645Z,0.98
2017-08-19T17:43:14.254Z,1.70
2017-08-19T17:45:40.894Z,1.30
2017-08-19T17:48:07.567Z,1.73
2017-08-19T17:50:34.202Z,7.12
2017-08-19T17:53:00.827Z,2.55
2017-08-19T17:55:27.491Z,1.60
2017-08-19T17:57:54.118Z,2.40
2017-08-19T18:00:20.739Z,1.45
2017-08-19T18:02:47.399Z,2.15
2017-08-19T18:05:14.006Z,1.77
2017-08-19T18:07:40.674Z,1.20
2017-08-19T18:10:07.319Z,1.25
2017-08-19T18:12:33.917Z,1.35
2017-08-19T18:15:00.562Z,1.52
2017-08-19T18:17:27.178Z,1.40
2017-08-19T18:19:53.794Z,1.80
2017-08-19T18:22:20.439Z,1.40
2017-08-19T18:24:47.034Z,1.48
2017-08-19T18:27:13.689Z,1.80
2017-08-19T18:29:40.326Z,1.60
2017-08-19T18:32:06.926Z,1.70
2017-08-19T18:34:33.530Z,1.48
2017-08-19T18:37:00.238Z,2.20
2017-08-19T18:39:26.850Z,1.75
2017-08-19T18:41:53.519Z,2.30
2017-08-19T18:44:20.154Z,1.85
2017-08-19T18:46:46.764Z,2.95
2017-08-19T18:49:13.442Z,2.35
2017-08-19T18:51:40.182Z,1.67
2017-08-19T18:54:06.815Z,2.20
2017-08-19T18:56:33.454Z,2.20
2017-08-19T18:59:00.100Z,1.85
2017-08-19T19:01:26.729Z,3.47
2017-08-19T19:03:53.338Z,3.28
2017-08-19T19:06:19.967Z,2.78
2017-08-19T19:08:46.574Z,2.12
2017-08-19T19:11:13.174Z,2.10
2017-08-19T19:13:39.815Z,2.00
2017-08-19T19:16:06.462Z,2.10
2017-08-19T19:18:33.103Z,2.10
2017-08-19T19:20:59.750Z,2.17
2017-08-19T19:23:26.354Z,2.50
2017-08-19T19:25:52.962Z,2.80
2017-08-19T19:28:19.658Z,2.80
2017-08-19T19:30:46.295Z,2.40
2017-08-19T19:33:12.937Z,2.35
2017-08-19T19:35:39.558Z,1.60
2017-08-19T19:38:06.219Z,2.20
2017-08-19T19:40:32.849Z,2.40
2017-08-19T19:42:59.498Z,2.70
2017-08-19T19:45:27.055Z,3.17
2017-08-19T19:47:53.696Z,2.67
2017-08-19T19:50:20.330Z,3.05
2017-08-19T19:52:46.971Z,3.58
2017-08-19T19:55:13.610Z,2.05
2017-08-19T19:57:40.234Z,2.47
2017-08-19T20:00:06.843Z,1.70
2017-08-19T20:02:33.526Z,2.28
2017-08-19T20:05:00.150Z,2.60
2017-08-19T20:07:26.760Z,2.83
2017-08-19T20:09:53.366Z,2.35
2017-08-19T20:12:20.082Z,2.53
2017-08-19T20:14:46.727Z,2.70
2017-08-19T20:17:13.368Z,2.58
2017-08-19T20:19:40.101Z,2.50
2017-08-19T20:22:06.707Z,2.92
2017-08-19T20:24:33.325Z,2.47
2017-08-19T20:26:59.955Z,5.80
2017-08-19T20:29:26.555Z,3.03
2017-08-19T20:31:53.157Z,3.62
2017-08-19T20:34:19.778Z,3.28
2017-08-19T20:36:46.382Z,3.75
2017-08-19T20:39:13.018Z,3.30
2017-08-19T20:41:39.650Z,3.03
2017-08-19T20:44:06.250Z,3.33
2017-08-19T20:46:32.932Z,3.72
2017-08-19T20:48:59.666Z,2.55
2017-08-19T20:51:26.305Z,3.75
2017-08-19T20:53:52.946Z,3.42
2017-08-19T20:56:19.685Z,4.68
2017-08-19T20:58:46.334Z,4.32
2017-08-19T21:01:12.947Z,3.65
2017-08-19T21:03:39.579Z,3.30
2017-08-19T21:06:06.242Z,3.87
2017-08-19T21:08:32.851Z,3.40
2017-08-19T21:10:59.482Z,4.15
2017-08-19T21:13:26.080Z,3.40
2017-08-19T21:15:52.703Z,2.78
2017-08-19T21:18:19.336Z,2.53
2017-08-19T21:20:45.938Z,2.95
2017-08-19T21:23:12.546Z,4.07
2017-08-19T21:25:39.251Z,3.30
2017-08-19T21:28:05.890Z,3.60
2017-08-19T21:30:32.495Z,3.20
2017-08-19T21:32:59.174Z,3.30
2017-08-19T21:35:25.807Z,3.58
2017-08-19T21:37:52.410Z,3.72
2017-08-19T21:40:19.046Z,6.15
2017-08-19T21:42:45.726Z,3.87
2017-08-19T21:45:12.322Z,3.40
2017-08-19T21:47:39.006Z,3.60
2017-08-19T21:50:05.725Z,3.15
2017-08-19T21:52:32.383Z,3.00
2017-08-19T21:54:59.011Z,2.50
2017-08-19T21:57:25.618Z,2.72
2017-08-19T21:59:52.299Z,3.25
2017-08-19T22:02:18.923Z,3.50
2017-08-19T22:04:45.577Z,4.30
2017-08-19T22:07:12.213Z,4.30
2017-08-19T22:09:38.962Z,4.93
2017-08-19T22:12:05.562Z,4.75
2017-08-19T22:14:32.237Z,4.40
2017-08-19T22:16:58.878Z,4.70
2017-08-19T22:19:25.514Z,4.18
2017-08-19T22:21:52.155Z,4.65
2017-08-19T22:24:18.778Z,4.20
2017-08-19T22:26:45.429Z,4.10
2017-08-19T22:29:12.071Z,5.95
2017-08-19T22:31:38.819Z,5.18
2017-08-19T22:34:05.450Z,4.97
2017-08-19T22:36:32.095Z,4.47
2017-08-19T22:38:59.146Z,5.65
2017-08-19T22:41:25.782Z,5.70
2017-08-19T22:43:52.392Z,5.20
2017-08-19T22:46:19.053Z,4.40
2017-08-19T22:48:45.697Z,5.35
2017-08-19T22:51:12.298Z,5.32
2017-08-19T22:53:38.930Z,4.43
2017-08-19T22:56:05.610Z,5.40
2017-08-19T22:58:32.209Z,4.00
2017-08-19T23:00:58.895Z,4.05
2017-08-19T23:03:25.494Z,3.80
2017-08-19T23:05:52.166Z,3.53
2017-08-19T23:08:18.803Z,3.78
2017-08-19T23:10:45.446Z,3.17
2017-08-19T23:13:12.082Z,4.20
2017-08-19T23:15:38.724Z,3.70
2017-08-19T23:18:05.326Z,3.45
2017-08-19T23:20:31.998Z,3.25
2017-08-19T23:22:58.642Z,3.70
2017-08-19T23:25:25.238Z,3.62
2017-08-19T23:27:51.918Z,3.45
2017-08-19T23:30:18.658Z,3.70
2017-08-19T23:32:45.307Z,3.35
2017-08-19T23:35:11.937Z,3.65
2017-08-19T23:37:38.610Z,3.80
2017-08-19T23:40:05.219Z,3.50
2017-08-19T23:42:31.855Z,3.70
2017-08-19T23:44:58.600Z,4.43
2017-08-19T23:47:25.238Z,3.45
2017-08-19T23:49:51.869Z,3.20
2017-08-19T23:52:18.510Z,3.58
2017-08-19T23:54:45.109Z,3.90
2017-08-19T23:57:11.734Z,4.20
2017-08-19T23:59:38.357Z,2.85
